Sedgwick Reserve, California Weather observations

Data are for 10 minute period ending at time listed.
 Day   Time   Solar   Ave.   Ave.  Ave.  Vector  Max.   Baro.   Total    
  of    of     Rad.   Air    Rel.  Wind   Wind   Wind  Press.  Precip.   
Year   Day            Temp.  Hum.  Speed  Dir.   Gust                    
2015   (PST)  Kw/m2    F      %     mph   deg.    mph    mb.     in.     
-------------------------------------------------------------------------
 208   13:50   0.78   82.5    38   13.7   268    20.8   970.4    0.00 
 208   14:00   0.83   82.6    38   11.4   275    20.0   970.4    0.00 
 208   14:10   0.83   82.7    38   11.3   272    19.8   970.4    0.00 
 208   14:20   0.81   82.6    38   11.3   272    18.9   970.4    0.00 
 208   14:30   0.79   81.2    40   12.1   253    19.6   970.3    0.00 
 208   14:40   0.76   81.9    39   11.1   255    18.5   970.2    0.00 
 208   14:50   0.74   82.1    39    9.9   255    16.5   970.1    0.00 
 208   15:00   0.72   82.2    39   10.4   254    19.4   970.1    0.00 
 208   15:10   0.69   81.1    41   13.6   254    21.7   970.0    0.00 
 208   15:20   0.66   80.2    42   14.0   258    20.4   970.0    0.00 
 208   15:30   0.63   80.8    40   11.1   272    19.0   970.0    0.00 
 208   15:40   0.61   80.5    41   12.2   267    18.7   970.0    0.00 
 208   15:50   0.58   80.4    39   11.7   273    17.3   969.9    0.00 
 208   16:00   0.55   80.6    37   12.6   284    20.8   969.8    0.00 
 208   16:10   0.52   79.6    36   15.6   274    23.4   969.7    0.00 
 208   16:20   0.49   79.8    37   11.6   269    19.0   969.7    0.00 
 208   16:30   0.46   79.1    38   14.1   262    21.9   969.6    0.00 
 208   16:40   0.42   78.8    38   14.1   258    22.3   969.5    0.00 
 208   16:50   0.39   78.2    39   13.6   266    20.7   969.5    0.00 
 208   17:00   0.36   78.2    39   13.5   263    22.9   969.5    0.00 
 208   17:10   0.32   77.8    40   13.5   273    20.0   969.6    0.00 
 208   17:20   0.29   77.7    41   10.2   280    18.0   969.5    0.00 
 208   17:30   0.26   76.9    41   11.5   283    18.9   969.6    0.00 
 208   17:40   0.22   76.1    43   10.1   283    18.5   969.7    0.00 
 208   17:50   0.19   76.2    45    7.0   279    14.0   969.7    0.00 
 208   18:00   0.16   76.6    45    3.9   286     8.0   969.8    0.00 
 208   18:10   0.13   75.4    48    5.5   292     9.2   969.9    0.00 
 208   18:20   0.10   74.1    51    6.9   270    11.8   970.0    0.00 
 208   18:30   0.08   72.6    54    7.9   265    11.4   970.0    0.00 
 208   18:40   0.05   71.7    56    6.8   267    11.2   970.1    0.00 
 208   18:50   0.03   71.2    57    4.4   249     8.3   970.2    0.00 
 208   19:00   0.01   70.2    59    5.0   250     8.2   970.3    0.00 
 208   19:10   0.00   69.0    62    3.5   188     5.8   970.3    0.00 
 208   19:20   0.00   66.6    66    3.5   150     5.6   970.3    0.00 
 208   19:30   0.00   65.7    69    3.1   153     5.4   970.3    0.00 
 208   19:40   0.00   65.0    70    2.7   141     5.0   970.4    0.00 
 208   19:50   0.00   64.2    72    2.7   176     5.1   970.4    0.00 
 208   20:00   0.00   63.8    72    1.1   201     2.1   970.5    0.00 
 208   20:10   0.00   63.2    73    0.5   143     1.3   970.4    0.00 
 208   20:20   0.00   62.7    75    1.5   114     2.6   970.4    0.00 
 208   20:30   0.00   61.9    76    1.8   126     3.3   970.5    0.00 
 208   20:40   0.00   61.3    76    1.4   128     2.5   970.5    0.00 
 208   20:50   0.00   60.8    78    1.7   109     2.6   970.6    0.00 
 208   21:00   0.00   60.0    80    2.2    92     3.3   970.7    0.00 
 208   21:10   0.00   59.6    80    1.8    91     3.5   970.7    0.00 
 208   21:20   0.00   59.1    80    1.9   136     3.7   970.7    0.00 
 208   21:30   0.00   58.6    80    2.1   132     3.7   970.7    0.00 
 208   21:40   0.00   58.0    82    2.8   112     5.0   970.7    0.00 
 208   21:50   0.00   57.5    85    1.9    91     3.2   970.7    0.00 
 208   22:00   0.00   57.5    86    1.6    69     2.9   970.6    0.00 
 208   22:10   0.00   56.9    86    1.7    38     2.6   970.6    0.00 
 208   22:20   0.00   55.7    87    1.3    12     2.5   970.5    0.00 
 208   22:30   0.00   55.4    87    0.1   301     0.7   970.5    0.00 
 208   22:40   0.00   55.0    86    0.3   228     1.4   970.5    0.00 
 208   22:50   0.00   54.5    88    0.1    11     1.7   970.5    0.00 
 208   23:00   0.00   53.7    89    1.9     3     3.4   970.5    0.00 
 208   23:10   0.00   53.4    89    0.9   306     2.1   970.5    0.00 
 208   23:20   0.00   53.3    88    1.5   308     2.8   970.4    0.00 
 208   23:30   0.00   53.0    89    2.0   353     4.9   970.3    0.00 
 208   23:40   0.00   52.6    89    1.6   336     4.9   970.3    0.00 
 208   23:50   0.00   52.8    88    0.9   264     1.8   970.3    0.00 
 209    0:00   0.00   52.7    88    0.8   314     1.9   970.3    0.00 
 209    0:10   0.00   52.4    88    1.0   360     3.1   970.3    0.00 
 209    0:20   0.00   52.6    89    1.6   315     4.9   970.3    0.00 
 209    0:30   0.00   52.4    89    0.8   277     3.0   970.3    0.00 
 209    0:40   0.00   51.8    89    1.6   350     4.7   970.2    0.00 
 209    0:50   0.00   51.9    90    0.8   304     3.0   970.1    0.00 
 209    1:00   0.00   52.1    90    1.0   297     2.9   970.1    0.00 
 209    1:10   0.00   52.4    91    2.1   317     5.4   969.9    0.00 
 209    1:20   0.00   51.8    90    1.9   340     4.4   969.9    0.00 
 209    1:30   0.00   51.6    90    2.4   345     4.2   969.9    0.00 
 209    1:40   0.00   52.0    91    1.6   302     3.1   969.8    0.00 
 209    1:50   0.00   51.9    91    1.3   338     3.6   969.7    0.00 
 209    2:00   0.00   51.9    91    1.0   287     2.6   969.7    0.00 
 209    2:10   0.00   51.7    91    0.6   288     2.9   969.7    0.00 
 209    2:20   0.00   51.1    91    2.2   359     4.7   969.7    0.00 
 209    2:30   0.00   51.5    92    2.3   345     3.9   969.6    0.00 
 209    2:40   0.00   51.5    92    1.6   353     4.8   969.5    0.00 
 209    2:50   0.00   51.8    92    1.7   274     3.7   969.5    0.00 
 209    3:00   0.00   51.1    92    2.1   340     4.7   969.4    0.00 
 209    3:10   0.00   50.7    92    1.1   142     3.7   969.4    0.00 
 209    3:20   0.00   51.1    92    1.6   280     5.7   969.4    0.00 
 209    3:30   0.00   50.8    93    1.6     2     4.7   969.5    0.00 
 209    3:40   0.00   51.4    93    1.7   266     3.8   969.6    0.00 
 209    3:50   0.00   50.9    92    3.3   341     8.8   969.5    0.00 
 209    4:00   0.00   50.9    93    2.7   310     6.4   969.5    0.00 
 209    4:10   0.00   51.1    93    2.6   350     6.3   969.6    0.00 
 209    4:20   0.00   51.8    93    1.6   260     3.2   969.6    0.00 
 209    4:30   0.00   51.8    93    1.6   301     3.7   969.6    0.00 
 209    4:40   0.00   51.4    92    2.3    10     4.2   969.7    0.00 
 209    4:50   0.00   50.8    93    1.3   335     2.6   969.8    0.00 
 209    5:00   0.00   52.0    93    1.1   327     3.0   969.8    0.00 
 209    5:10   0.00   51.5    93    1.2   342     3.0   969.9    0.00 
 209    5:20   0.01   51.7    93    0.9   242     2.0   970.0    0.00 
 209    5:30   0.01   51.3    93    0.9   306     2.4   970.0    0.00 
 209    5:40   0.01   51.0    93    0.6    42     2.0   970.1    0.00 
 209    5:50   0.03   51.4    93    0.2   304     1.2   970.2    0.00 
 209    6:00   0.09   51.9    92    1.7    10     3.5   970.3    0.00 
 209    6:10   0.12   53.0    90    2.2     2     3.4   970.4    0.00 
 209    6:20   0.15   54.7    87    0.3    62     1.4   970.4    0.00 
 209    6:30   0.18   57.1    81    0.8   342     2.4   970.4    0.00 
 209    6:40   0.21   59.2    77    0.8    22     3.3   970.4    0.00 
 209    6:50   0.24   61.3    72    0.3    59     2.6   970.4    0.00 
 209    7:00   0.27   64.2    67    0.5    83     2.5   970.4    0.00 
 209    7:10   0.31   65.9    64    0.9    82     2.1   970.4    0.00 
 209    7:20   0.34   67.5    61    1.8   143     3.0   970.4    0.00 
 209    7:30   0.38   68.0    59    2.1   142     4.2   970.6    0.00 
 209    7:40   0.41   68.5    59    3.4   124     5.3   970.7    0.00 
 209    7:50   0.44   69.0    57    3.2   125     5.2   970.8    0.00 
 209    8:00   0.47   70.5    55    4.4   118     7.6   970.9    0.00 
 209    8:10   0.50   70.4    56    4.9   128     7.4   971.0    0.00 
 209    8:20   0.54   71.3    56    4.6   125     6.6   971.0    0.00 
 209    8:30   0.56   73.0    53    3.8   127     5.6   971.0    0.00 
 209    8:40   0.59   74.4    51    4.4   117     7.7   971.1    0.00 
 209    8:50   0.62   75.1    50    5.4   115     8.0   971.2    0.00 
 209    9:00   0.65   75.6    49    5.1   118     8.0   971.2    0.00 
 209    9:10   0.68   77.3    46    4.0   120     7.7   971.1    0.00 
 209    9:20   0.71   78.0    45    3.9   142     7.1   971.2    0.00 
 209    9:30   0.73   78.6    44    4.4   183     8.3   971.2    0.00 
 209    9:40   0.76   78.6    43    4.8   197     9.4   971.1    0.00 
 209    9:50   0.78   79.3    42    4.6   212     9.0   971.1    0.00 
 209   10:00   0.80   80.3    41    4.8   202     9.6   971.0    0.00 
 209   10:10   0.82   81.0    40    5.0   235    10.2   971.0    0.00 
 209   10:20   0.83   81.1    40    6.1   252     9.7   970.9    0.00 
 209   10:30   0.85   81.4    40    6.4   240    11.8   970.9    0.00 
 209   10:40   0.87   81.9    38    7.6   246    11.8   970.8    0.00 
 209   10:50   0.88   83.3    36    5.8   229    11.5   970.8    0.00 
 209   11:00   0.90   83.7    35    5.3   221     9.4   970.7    0.00 
 209   11:10   0.90   84.6    35    8.2   202    13.6   970.6    0.00 
 209   11:20   0.91   85.0    34    7.5   197    13.2   970.6    0.00 
 209   11:30   0.88   85.5    32    7.8   242    13.5   970.5    0.00 
 209   11:40   0.93   85.4    34    7.9   215    15.3   970.4    0.00 
 209   11:50   0.92   86.2    34    8.1   216    14.2   970.4    0.00 
 209   12:00   0.93   86.1    34    8.8   228    15.4   970.3    0.00 
 209   12:10   0.93   87.4    33    6.2   246    11.5   970.3    0.00 
 209   12:20   0.92   88.3    34    8.0   219    14.7   970.1    0.00 
 209   12:30   0.92   87.6    36    8.8   226    17.1   970.0    0.00 
 209   12:40   0.92   88.5    34    9.3   233    14.4   970.0    0.00 
 209   12:50   0.91   88.4    33    8.5   262    17.0   969.9    0.00 
 209   13:00   0.91   88.7    32   10.2   256    17.4   969.8    0.00 
 209   13:10   0.90   88.6    33    8.8   246    15.3   969.8    0.00 
 209   13:20   0.88   89.2    34    9.5   271    17.8   969.7    0.00 
 209   13:30   0.87   88.2    36   11.6   278    18.2   969.7    0.00 
 209   13:40   0.86   89.1    34    9.6   276    17.5   969.7    0.00 

Return to Sedgwick Reserve graphs page.


Western Regional Climate Center,wrcc@dri.edu